Time;durP1;ratioP1;P1;durP2;ratioP2;P2;SDS_P1;SDS_P2;PMS_P1;PMS_P2;Temp;Humidity;BMP_temperature;BMP_pressure;BME280_temperature;BME280_humidity;BME280_pressure;Samples;Min_cycle;Max_cycle;Signal;HPM_P1;HPM_P2
2023/03/04 00:01:14;;;;;;;;;;;;;;;4.85;81.36;99861.06;3170615;28;19935;-62
2023/03/04 00:02:46;;;;;;;;;;;;;;;4.83;81.55;99860.22;3170079;28;19928;-63
2023/03/04 00:04:17;;;;;;;;;;;;;;;4.83;81.57;99856.81;3170711;28;19950;-63
2023/03/04 00:05:49;;;;;;;;;;;;;;;4.83;81.75;99857.66;3170603;28;19987;-63
2023/03/04 00:07:21;;;;;;;;;;;;;;;4.83;81.67;99849.91;3170616;28;20051;-62
2023/03/04 00:08:51;;;;;;;;;;;;;;;4.84;81.72;99858.50;3170607;28;19928;-62
2023/03/04 00:10:23;;;;;;;;;;;;;;;4.84;81.68;99853.34;3170454;28;19934;-63
2023/03/04 00:11:54;;;;;;;;;;;;;;;4.82;81.72;99853.34;3170523;28;19972;-63
2023/03/04 00:13:25;;;;;;;;;;;;;;;4.84;81.67;99853.34;3170394;28;19924;-62
2023/03/04 00:14:56;;;;;;;;;;;;;;;4.83;81.73;99854.22;3158066;28;20720;-62
2023/03/04 00:16:28;;;;;;;;;;;;;;;4.83;81.76;99847.34;3157574;28;19931;-63
2023/03/04 00:18:00;;;;;;;;;;;;;;;4.83;81.82;99852.50;3167401;28;19924;-63
2023/03/04 00:19:30;;;;;;;;;;;;;;;4.82;81.69;99848.19;3170390;28;19928;-63
2023/03/04 00:21:02;;;;;;;;;;;;;;;4.82;81.77;99845.59;3170581;28;19990;-63
2023/03/04 00:22:32;;;;;;;;;;;;;;;4.80;81.75;99839.66;3170594;28;19981;-63
2023/03/04 00:24:04;;;;;;;;;;;;;;;4.79;81.92;99843.09;3170499;28;20004;-63
2023/03/04 00:25:35;;;;;;;;;;;;;;;4.75;81.85;99851.78;3170348;28;20019;-62
2023/03/04 00:27:06;;;;;;;;;;;;;;;4.72;81.88;99846.69;3170434;28;20337;-63
2023/03/04 00:28:38;;;;;;;;;;;;;;;4.68;81.94;99850.22;3170118;28;19924;-63
2023/03/04 00:30:10;;;;;;;;;;;;;;;4.66;82.03;99854.56;3170245;28;19971;-62
2023/03/04 00:31:43;;;;;;;;;;;;;;;4.62;81.99;99853.78;3174142;28;20384;-63
2023/03/04 00:33:15;;;;;;;;;;;;;;;4.61;82.07;99848.63;3174798;28;19931;-63
2023/03/04 00:34:47;;;;;;;;;;;;;;;4.60;82.24;99844.38;3174715;28;20063;-63
2023/03/04 00:36:18;;;;;;;;;;;;;;;4.59;82.29;99847.84;3174485;28;20312;-63
2023/03/04 00:37:49;;;;;;;;;;;;;;;4.56;82.24;99848.75;3174959;28;20335;-63
2023/03/04 00:39:20;;;;;;;;;;;;;;;4.56;82.19;99843.59;3174830;27;19930;-63
2023/03/04 00:40:51;;;;;;;;;;;;;;;4.55;82.22;99844.44;3174468;28;19924;-63
2023/03/04 00:42:22;;;;;;;;;;;;;;;4.54;82.26;99840.19;3174721;28;19928;-63
2023/03/04 00:43:54;;;;;;;;;;;;;;;4.53;82.35;99838.50;3174687;28;19987;-63
2023/03/04 00:45:24;;;;;;;;;;;;;;;4.54;82.30;99840.19;3174586;28;19988;-62
2023/03/04 00:46:57;;;;;;;;;;;;;;;4.54;82.21;99835.88;3174664;28;20310;-63
2023/03/04 00:48:29;;;;;;;;;;;;;;;4.55;82.16;99841.88;3174497;28;19927;-62
2023/03/04 00:50:01;;;;;;;;;;;;;;;4.54;82.27;99845.34;3174391;28;20051;-63
2023/03/04 00:51:32;;;;;;;;;;;;;;;4.53;82.30;99841.06;3174757;28;19977;-63
2023/03/04 00:53:04;;;;;;;;;;;;;;;4.53;82.29;99854.81;3174541;28;19928;-62
2023/03/04 00:54:35;;;;;;;;;;;;;;;4.52;82.40;99847.09;3174337;28;19931;-62
2023/03/04 00:56:07;;;;;;;;;;;;;;;4.51;82.28;99842.81;3174680;28;19925;-63
2023/03/04 00:57:39;;;;;;;;;;;;;;;4.47;82.52;99844.63;3174443;28;19931;-62
2023/03/04 00:59:09;;;;;;;;;;;;;;;4.47;82.41;99844.63;3173841;28;19928;-63
2023/03/04 01:00:41;;;;;;;;;;;;;;;4.48;82.71;99842.88;3174660;28;19980;-63
2023/03/04 01:02:14;;;;;;;;;;;;;;;4.48;82.72;99850.63;3174442;28;19928;-62
2023/03/04 01:03:44;;;;;;;;;;;;;;;4.48;82.71;99848.03;3174108;28;19924;-63
2023/03/04 01:05:16;;;;;;;;;;;;;;;4.50;82.54;99848.88;3174365;28;19991;-63
2023/03/04 01:06:48;;;;;;;;;;;;;;;4.47;82.59;99849.78;3174411;28;19934;-63
2023/03/04 01:08:19;;;;;;;;;;;;;;;4.44;82.95;99842.09;3174199;28;19924;-63
2023/03/04 01:09:50;;;;;;;;;;;;;;;4.42;83.01;99838.69;3174004;28;19999;-63
2023/03/04 01:11:21;;;;;;;;;;;;;;;4.42;83.14;99840.44;3174182;28;19923;-63
2023/03/04 01:12:52;;;;;;;;;;;;;;;4.41;83.35;99833.53;3174384;28;19928;-62
2023/03/04 01:14:23;;;;;;;;;;;;;;;4.42;83.44;99841.28;3174130;28;20115;-63
2023/03/04 01:15:56;;;;;;;;;;;;;;;4.43;83.43;99835.22;3174180;28;19924;-62
2023/03/04 01:17:29;;;;;;;;;;;;;;;4.45;83.36;99836.06;3174236;28;20419;-63
2023/03/04 01:19:01;;;;;;;;;;;;;;;4.47;83.29;99830.88;3174487;28;19923;-62
2023/03/04 01:20:32;;;;;;;;;;;;;;;4.48;83.45;99833.41;3174261;28;19927;-63
2023/03/04 01:22:04;;;;;;;;;;;;;;;4.50;83.31;99833.41;3174267;28;19923;-63
2023/03/04 01:23:34;;;;;;;;;;;;;;;4.52;83.28;99829.03;3174360;28;20366;-62
2023/03/04 01:25:07;;;;;;;;;;;;;;;4.55;83.31;99837.59;3174140;28;19924;-63
2023/03/04 01:26:38;;;;;;;;;;;;;;;4.56;83.11;99828.13;3174290;27;19924;-63
2023/03/04 01:28:10;;;;;;;;;;;;;;;4.59;83.01;99828.06;3174213;28;19924;-63
2023/03/04 01:29:41;;;;;;;;;;;;;;;4.58;82.91;99828.91;3174515;27;19936;-63
2023/03/04 01:31:13;;;;;;;;;;;;;;;4.60;82.94;99826.31;3174224;27;19935;-63
2023/03/04 01:32:46;;;;;;;;;;;;;;;4.60;82.86;99836.63;3174549;27;19924;-62
2023/03/04 01:34:17;;;;;;;;;;;;;;;4.54;83.02;99827.28;3174303;27;19980;-63
2023/03/04 01:35:48;;;;;;;;;;;;;;;4.57;82.99;99833.22;3174270;27;20014;-62
2023/03/04 01:37:20;;;;;;;;;;;;;;;4.58;82.90;99828.91;3174409;27;19923;-63
2023/03/04 01:38:51;;;;;;;;;;;;;;;4.59;82.99;99827.22;3174448;27;19931;-62
2023/03/04 01:40:23;;;;;;;;;;;;;;;4.60;83.00;99834.91;3174460;27;19927;-63
2023/03/04 01:41:54;;;;;;;;;;;;;;;4.60;82.99;99821.16;3173988;27;19928;-62
2023/03/04 01:43:27;;;;;;;;;;;;;;;4.57;83.06;99822.06;3171569;28;19972;-63
2023/03/04 01:44:59;;;;;;;;;;;;;;;4.55;82.94;99822.13;3172064;28;19927;-63
2023/03/04 01:46:31;;;;;;;;;;;;;;;4.53;82.97;99820.44;3172142;28;20301;-62
2023/03/04 01:48:04;;;;;;;;;;;;;;;4.52;83.24;99821.31;3172132;28;19927;-62
2023/03/04 01:49:36;;;;;;;;;;;;;;;4.53;83.20;99820.44;3172100;28;20392;-63
2023/03/04 01:51:12;;;;;;;;;;;;;;;4.53;83.32;99815.28;3172084;28;19951;-63
2023/03/04 01:52:43;;;;;;;;;;;;;;;4.53;83.00;99821.28;3172125;28;19924;-63
2023/03/04 01:54:15;;;;;;;;;;;;;;;4.54;82.99;99820.41;3172107;28;19924;-63
2023/03/04 01:55:47;;;;;;;;;;;;;;;4.54;82.96;99816.97;3171361;28;20366;-63
2023/03/04 01:57:19;;;;;;;;;;;;;;;4.53;82.99;99812.72;3171919;28;19923;-63
2023/03/04 01:59:11;;;;;;;;;;;;;;;4.54;83.06;99815.25;3172298;28;19924;-63
2023/03/04 02:00:42;;;;;;;;;;;;;;;4.55;82.95;99808.34;3171979;28;19977;-63
2023/03/04 02:02:14;;;;;;;;;;;;;;;4.54;83.12;99807.50;3171633;28;20332;-63
2023/03/04 02:03:47;;;;;;;;;;;;;;;4.53;83.06;99816.13;3172027;28;19924;-63
2023/03/04 02:05:18;;;;;;;;;;;;;;;4.52;83.04;99821.31;3172119;28;19946;-63
2023/03/04 02:06:50;;;;;;;;;;;;;;;4.52;82.98;99817.00;3171885;28;20029;-62
2023/03/04 02:08:23;;;;;;;;;;;;;;;4.53;82.98;99815.28;3172292;28;19930;-63
2023/03/04 02:09:54;;;;;;;;;;;;;;;4.51;83.10;99809.28;3171845;28;19927;-63
2023/03/04 02:11:25;;;;;;;;;;;;;;;4.53;82.97;99799.81;3171850;28;19928;-63
2023/03/04 02:12:58;;;;;;;;;;;;;;;4.54;82.95;99798.91;3171996;28;19932;-62
2023/03/04 02:14:30;;;;;;;;;;;;;;;4.54;82.99;99807.50;3171689;28;19923;-63
2023/03/04 02:16:01;;;;;;;;;;;;;;;4.55;83.12;99805.75;3171731;28;20000;-63
2023/03/04 02:17:33;;;;;;;;;;;;;;;4.55;83.15;99808.34;3171834;28;19928;-63
2023/03/04 02:19:16;;;;;;;;;;;;;;;4.55;83.15;99808.34;3171335;28;20317;-63
2023/03/04 02:20:52;;;;;;;;;;;;;;;4.55;83.10;99795.44;3172003;28;19928;-63
2023/03/04 02:22:24;;;;;;;;;;;;;;;4.54;83.19;99804.91;3171931;28;19927;-63
2023/03/04 02:24:01;;;;;;;;;;;;;;;4.54;83.17;99804.91;3171668;28;19950;-63
2023/03/04 02:25:35;;;;;;;;;;;;;;;4.54;83.26;99804.91;3171826;28;19927;-63
2023/03/04 02:27:08;;;;;;;;;;;;;;;4.56;83.15;99810.06;3171681;28;19924;-63
2023/03/04 02:28:39;;;;;;;;;;;;;;;4.55;83.12;99795.44;3171479;28;19981;-63
2023/03/04 02:30:12;;;;;;;;;;;;;;;4.55;83.32;99798.91;3171700;28;19923;-62
2023/03/04 02:31:45;;;;;;;;;;;;;;;4.55;83.29;99788.59;3171513;28;19924;-63
2023/03/04 02:33:16;;;;;;;;;;;;;;;4.58;83.21;99792.81;3171512;28;19946;-62
2023/03/04 02:34:49;;;;;;;;;;;;;;;4.59;83.31;99791.09;3171644;28;19928;-63
2023/03/04 02:36:19;;;;;;;;;;;;;;;4.58;83.31;99792.81;3171662;28;20411;-62
2023/03/04 02:37:51;;;;;;;;;;;;;;;4.59;83.12;99786.78;3171652;28;19931;-63
2023/03/04 02:39:24;;;;;;;;;;;;;;;4.59;83.25;99784.22;3171659;28;19939;-62
2023/03/04 02:40:57;;;;;;;;;;;;;;;4.60;83.27;99785.06;3171568;28;19934;-63
2023/03/04 02:42:29;;;;;;;;;;;;;;;4.60;83.28;99783.31;3171439;28;20029;-63
2023/03/04 02:44:00;;;;;;;;;;;;;;;4.61;83.35;99779.84;3171590;28;19998;-63
2023/03/04 02:45:39;;;;;;;;;;;;;;;4.61;83.43;99779.84;3171241;28;19924;-63
2023/03/04 02:47:11;;;;;;;;;;;;;;;4.62;83.25;99786.72;3171534;28;19949;-62
2023/03/04 02:48:43;;;;;;;;;;;;;;;4.61;83.40;99779.84;3171581;28;20320;-62
2023/03/04 02:50:13;;;;;;;;;;;;;;;4.64;83.34;99784.09;3171299;28;19974;-63
2023/03/04 02:51:45;;;;;;;;;;;;;;;4.64;83.47;99786.66;3170961;28;20396;-63
2023/03/04 02:53:17;;;;;;;;;;;;;;;4.64;83.34;99784.94;3171555;28;19928;-63
2023/03/04 02:54:48;;;;;;;;;;;;;;;4.66;83.35;99787.50;3170987;27;20319;-63
2023/03/04 02:56:19;;;;;;;;;;;;;;;4.65;83.27;99778.91;3171150;28;19923;-63
2023/03/04 02:57:52;;;;;;;;;;;;;;;4.66;83.31;99782.34;3171494;28;19928;-63
2023/03/04 02:59:23;;;;;;;;;;;;;;;4.66;83.40;99790.91;3171335;28;20046;-63
2023/03/04 03:00:55;;;;;;;;;;;;;;;4.65;83.30;99789.22;3171299;28;19977;-63
2023/03/04 03:02:26;;;;;;;;;;;;;;;4.66;83.42;99790.06;3171113;28;19931;-63
2023/03/04 03:03:57;;;;;;;;;;;;;;;4.66;83.35;99790.06;3171167;28;19958;-62
2023/03/04 03:05:31;;;;;;;;;;;;;;;4.65;83.30;99793.53;3171192;28;19928;-63
2023/03/04 03:07:02;;;;;;;;;;;;;;;4.66;83.41;99800.41;3171198;28;19928;-63
2023/03/04 03:08:34;;;;;;;;;;;;;;;4.65;83.24;99791.81;3171290;28;19931;-63
2023/03/04 03:10:04;;;;;;;;;;;;;;;4.64;83.27;99794.41;3171200;28;19932;-63
2023/03/04 03:11:36;;;;;;;;;;;;;;;4.63;83.40;99803.03;3171091;28;20014;-63
2023/03/04 03:13:08;;;;;;;;;;;;;;;4.63;83.40;99803.88;3167935;28;19927;-62
2023/03/04 03:14:40;;;;;;;;;;;;;;;4.63;83.51;99806.47;3170814;28;19924;-63
2023/03/04 03:16:13;;;;;;;;;;;;;;;4.60;83.44;99809.09;3171062;28;19945;-62
2023/03/04 03:17:45;;;;;;;;;;;;;;;4.62;83.66;99809.94;3170981;28;19923;-63
2023/03/04 03:19:17;;;;;;;;;;;;;;;4.63;83.51;99809.03;3171014;28;19924;-63
2023/03/04 03:20:49;;;;;;;;;;;;;;;4.64;83.40;99804.72;3170928;28;19928;-62
2023/03/04 03:22:19;;;;;;;;;;;;;;;4.65;83.63;99812.44;3171278;28;19936;-63
2023/03/04 03:23:51;;;;;;;;;;;;;;;4.64;83.55;99812.47;3171002;28;20300;-63
2023/03/04 03:25:22;;;;;;;;;;;;;;;4.64;83.43;99815.03;3170812;28;20323;-63
2023/03/04 03:26:53;;;;;;;;;;;;;;;4.63;83.62;99814.19;3170820;28;19930;-62
2023/03/04 03:28:26;;;;;;;;;;;;;;;4.64;83.64;99822.78;3171135;28;19927;-62
2023/03/04 03:29:57;;;;;;;;;;;;;;;4.65;83.49;99819.34;3170438;28;20014;-63
2023/03/04 03:31:28;;;;;;;;;;;;;;;4.64;83.39;99813.31;3171095;28;19924;-63
2023/03/04 03:33:00;;;;;;;;;;;;;;;4.64;83.40;99817.63;3171045;28;19931;-63
2023/03/04 03:34:31;;;;;;;;;;;;;;;4.63;83.59;99816.78;3170854;28;19924;-62
2023/03/04 03:36:03;;;;;;;;;;;;;;;4.62;83.48;99811.66;3170050;28;20384;-63
2023/03/04 03:37:35;;;;;;;;;;;;;;;4.62;83.45;99811.66;3170493;28;20387;-63
2023/03/04 03:39:05;;;;;;;;;;;;;;;4.61;83.58;99809.94;3171012;28;19960;-63
2023/03/04 03:40:37;;;;;;;;;;;;;;;4.60;83.49;99816.00;3170493;28;20457;-63
2023/03/04 03:42:08;;;;;;;;;;;;;;;4.57;83.40;99812.59;3170943;28;19973;-63
2023/03/04 03:43:41;;;;;;;;;;;;;;;4.57;83.60;99815.16;3170583;28;19923;-63
2023/03/04 03:45:11;;;;;;;;;;;;;;;4.57;83.50;99809.16;3171168;28;20069;-63
2023/03/04 03:46:43;;;;;;;;;;;;;;;4.56;83.58;99807.47;3170472;28;19996;-63
2023/03/04 03:48:15;;;;;;;;;;;;;;;4.55;83.48;99810.91;3170497;28;19931;-63
2023/03/04 03:49:46;;;;;;;;;;;;;;;4.54;83.62;99815.25;3170652;28;19928;-63
2023/03/04 03:51:18;;;;;;;;;;;;;;;4.53;83.57;99810.97;3170831;28;19928;-63
2023/03/04 03:52:49;;;;;;;;;;;;;;;4.51;83.71;99809.28;3170761;28;19931;-63
2023/03/04 03:54:20;;;;;;;;;;;;;;;4.48;83.64;99810.22;3170465;28;19924;-63
2023/03/04 03:55:51;;;;;;;;;;;;;;;4.48;83.64;99807.63;3170468;28;19930;-62
2023/03/04 03:57:23;;;;;;;;;;;;;;;4.48;83.75;99812.78;3170653;28;19992;-63
2023/03/04 03:58:56;;;;;;;;;;;;;;;4.49;83.64;99811.03;3170277;28;19976;-63
2023/03/04 04:00:27;;;;;;;;;;;;;;;4.48;83.52;99806.78;3170597;28;19927;-63
2023/03/04 04:01:59;;;;;;;;;;;;;;;4.46;83.84;99809.38;3170438;28;19938;-63
2023/03/04 04:03:30;;;;;;;;;;;;;;;4.46;83.81;99806.78;3170498;28;20063;-63
2023/03/04 04:05:02;;;;;;;;;;;;;;;4.46;83.75;99801.63;3170686;28;20018;-63
2023/03/04 04:06:32;;;;;;;;;;;;;;;4.46;83.86;99808.53;3169935;28;19927;-63
2023/03/04 04:08:04;;;;;;;;;;;;;;;4.46;83.69;99808.53;3170749;28;19930;-62
2023/03/04 04:09:36;;;;;;;;;;;;;;;4.47;83.71;99805.09;3170452;28;20273;-62
2023/03/04 04:11:09;;;;;;;;;;;;;;;4.47;83.78;99810.25;3170510;28;19935;-63
2023/03/04 04:12:40;;;;;;;;;;;;;;;4.46;83.75;99801.63;3170681;28;19946;-63
2023/03/04 04:14:14;;;;;;;;;;;;;;;4.46;83.73;99801.63;3170618;28;19938;-63
2023/03/04 04:15:46;;;;;;;;;;;;;;;4.46;83.68;99813.69;3170410;28;19924;-63
2023/03/04 04:17:17;;;;;;;;;;;;;;;4.44;83.77;99808.59;3170175;28;19931;-63
2023/03/04 04:18:49;;;;;;;;;;;;;;;4.42;83.70;99814.66;3170770;27;19924;-62
2023/03/04 04:20:20;;;;;;;;;;;;;;;4.37;83.77;99806.13;3170609;28;19931;-63
2023/03/04 04:21:52;;;;;;;;;;;;;;;4.33;83.72;99801.03;3170620;28;19934;-63
2023/03/04 04:23:24;;;;;;;;;;;;;;;4.33;83.72;99798.47;3170272;28;20659;-62
2023/03/04 04:24:55;;;;;;;;;;;;;;;4.33;83.80;99801.03;3170432;28;19931;-63
2023/03/04 04:26:27;;;;;;;;;;;;;;;4.32;83.85;99799.34;3170317;28;19935;-63
2023/03/04 04:27:58;;;;;;;;;;;;;;;4.32;83.78;99801.09;3170302;28;19935;-63
2023/03/04 04:29:31;;;;;;;;;;;;;;;4.33;83.87;99808.78;3170517;28;19935;-63
2023/03/04 04:31:05;;;;;;;;;;;;;;;4.33;84.20;99821.66;3170227;28;19927;-63
2023/03/04 04:32:37;;;;;;;;;;;;;;;4.31;84.07;99818.25;3170204;28;20004;-63
2023/03/04 04:34:08;;;;;;;;;;;;;;;4.30;84.05;99819.16;3170369;28;19924;-63
2023/03/04 04:35:40;;;;;;;;;;;;;;;4.29;84.15;99822.63;3169988;28;19931;-62
2023/03/04 04:37:12;;;;;;;;;;;;;;;4.29;83.96;99821.78;3170498;28;19973;-63
2023/03/04 04:38:42;;;;;;;;;;;;;;;4.28;84.11;99832.94;3170159;28;20394;-63
2023/03/04 04:40:14;;;;;;;;;;;;;;;4.27;83.98;99831.25;3170279;28;19924;-62
2023/03/04 04:41:46;;;;;;;;;;;;;;;4.25;83.96;99818.38;3169063;28;19932;-62
2023/03/04 04:43:17;;;;;;;;;;;;;;;4.25;84.11;99825.28;3169658;28;19927;-63
2023/03/04 04:44:51;;;;;;;;;;;;;;;4.25;84.23;99818.38;3170000;28;19988;-62
2023/03/04 04:46:23;;;;;;;;;;;;;;;4.24;84.33;99818.44;3167064;28;19932;-63
2023/03/04 04:47:56;;;;;;;;;;;;;;;4.22;84.07;99818.44;3157547;28;20385;-63
2023/03/04 04:49:27;;;;;;;;;;;;;;;4.21;84.20;99811.59;3168076;28;19928;-63
2023/03/04 04:50:58;;;;;;;;;;;;;;;4.21;84.11;99819.34;3169900;28;19924;-62
2023/03/04 04:52:29;;;;;;;;;;;;;;;4.21;84.16;99823.66;3170089;28;20072;-63
2023/03/04 04:54:01;;;;;;;;;;;;;;;4.21;84.04;99821.06;3170138;28;20320;-62
2023/03/04 04:55:34;;;;;;;;;;;;;;;4.20;84.21;99825.38;3170061;28;20000;-62
2023/03/04 04:57:04;;;;;;;;;;;;;;;4.20;84.23;99825.38;3170104;28;19992;-63
2023/03/04 04:58:36;;;;;;;;;;;;;;;4.16;84.11;99818.56;3169777;28;20076;-63
2023/03/04 05:00:10;;;;;;;;;;;;;;;4.21;84.28;99839.09;3170148;28;19928;-63
2023/03/04 05:01:42;;;;;;;;;;;;;;;4.21;84.32;99839.09;3169920;28;19924;-62
2023/03/04 05:03:12;;;;;;;;;;;;;;;4.22;84.27;99840.78;3169912;28;19924;-62
2023/03/04 05:04:44;;;;;;;;;;;;;;;4.21;84.09;99839.09;3170052;28;20017;-62
2023/03/04 05:06:14;;;;;;;;;;;;;;;4.21;84.20;99837.38;3169676;28;19924;-62
2023/03/04 05:07:46;;;;;;;;;;;;;;;4.21;84.21;99839.94;3169808;28;19923;-62
2023/03/04 05:09:18;;;;;;;;;;;;;;;4.19;84.07;99836.53;3169980;28;20388;-62
2023/03/04 05:10:48;;;;;;;;;;;;;;;4.18;84.08;99847.75;3169818;28;19940;-62
2023/03/04 05:12:20;;;;;;;;;;;;;;;4.15;84.23;99840.06;3169917;28;19935;-62
2023/03/04 05:13:51;;;;;;;;;;;;;;;4.14;84.27;99843.53;3169977;28;19923;-62
2023/03/04 05:15:23;;;;;;;;;;;;;;;4.14;84.30;99842.66;3169764;28;19923;-62
2023/03/04 05:16:55;;;;;;;;;;;;;;;4.10;84.23;99849.59;3169912;28;19923;-62
2023/03/04 05:18:27;;;;;;;;;;;;;;;4.07;84.43;99847.94;3171231;28;19928;-62
2023/03/04 05:19:58;;;;;;;;;;;;;;;4.08;84.32;99846.19;3172164;28;19928;-62
2023/03/04 05:21:29;;;;;;;;;;;;;;;4.08;84.48;99841.91;3172461;28;19980;-62
2023/03/04 05:23:00;;;;;;;;;;;;;;;4.08;84.35;99841.91;3172484;28;20333;-62
2023/03/04 05:24:32;;;;;;;;;;;;;;;4.06;84.38;99843.66;3172244;28;20008;-62
2023/03/04 05:26:04;;;;;;;;;;;;;;;4.05;84.41;99847.13;3172239;28;19927;-62
2023/03/04 05:27:36;;;;;;;;;;;;;;;4.05;84.46;99847.13;3172049;28;19945;-62
2023/03/04 05:29:07;;;;;;;;;;;;;;;4.05;84.48;99848.81;3172319;28;19932;-62
2023/03/04 05:30:40;;;;;;;;;;;;;;;4.02;84.31;99846.31;3172527;28;19945;-62
2023/03/04 05:32:11;;;;;;;;;;;;;;;4.02;84.27;99852.34;3172224;28;19924;-62
2023/03/04 05:33:43;;;;;;;;;;;;;;;4.03;84.45;99855.75;3172429;28;20384;-62
2023/03/04 05:35:15;;;;;;;;;;;;;;;4.01;84.43;99848.03;3172264;28;20396;-62
2023/03/04 05:36:45;;;;;;;;;;;;;;;3.99;84.47;99846.34;3172401;28;19923;-62
2023/03/04 05:38:18;;;;;;;;;;;;;;;3.98;84.55;99847.25;3172243;28;20028;-62
2023/03/04 05:39:48;;;;;;;;;;;;;;;3.97;84.57;99848.97;3172087;28;19931;-62
2023/03/04 05:41:21;;;;;;;;;;;;;;;3.95;84.40;99842.16;3172463;27;19928;-62
2023/03/04 05:42:52;;;;;;;;;;;;;;;3.92;84.62;99839.63;3172248;28;20407;-62
2023/03/04 05:44:23;;;;;;;;;;;;;;;3.88;84.40;99841.41;3172188;28;19924;-62
2023/03/04 05:45:56;;;;;;;;;;;;;;;3.85;84.54;99844.88;3172243;28;19930;-62
2023/03/04 05:47:28;;;;;;;;;;;;;;;3.83;84.57;99856.94;3172134;28;19976;-62
2023/03/04 05:48:59;;;;;;;;;;;;;;;3.80;84.69;99863.88;3172051;28;20033;-62
2023/03/04 05:50:32;;;;;;;;;;;;;;;3.77;84.71;99861.34;3172029;28;19997;-62
2023/03/04 05:52:03;;;;;;;;;;;;;;;3.73;84.79;99865.69;3172170;28;20404;-62
2023/03/04 05:53:36;;;;;;;;;;;;;;;3.71;84.88;99869.16;3171973;28;19979;-62
2023/03/04 05:55:07;;;;;;;;;;;;;;;3.69;84.83;99866.59;3172006;28;20014;-62
2023/03/04 05:56:38;;;;;;;;;;;;;;;3.68;84.73;99856.34;3172036;28;19953;-62
2023/03/04 05:58:10;;;;;;;;;;;;;;;3.66;84.87;99851.22;3171899;28;19924;-62
2023/03/04 05:59:42;;;;;;;;;;;;;;;3.66;84.94;99856.34;3171928;28;19924;-62
2023/03/04 06:01:15;;;;;;;;;;;;;;;3.60;84.85;99870.19;3172204;28;20015;-62
2023/03/04 06:02:45;;;;;;;;;;;;;;;3.52;85.09;99869.47;3171905;28;19924;-62
2023/03/04 06:04:17;;;;;;;;;;;;;;;3.48;85.23;99869.53;3172177;28;19938;-62
2023/03/04 06:05:49;;;;;;;;;;;;;;;3.40;85.20;99873.06;3171921;28;19924;-61
2023/03/04 06:07:20;;;;;;;;;;;;;;;3.33;85.34;99868.88;3171569;28;19924;-61
2023/03/04 06:08:52;;;;;;;;;;;;;;;3.25;85.46;99864.72;3171967;28;20296;-61
2023/03/04 06:10:23;;;;;;;;;;;;;;;3.21;85.77;99866.47;3171783;28;20417;-62
2023/03/04 06:11:55;;;;;;;;;;;;;;;3.21;85.90;99863.91;3171312;28;20317;-61
2023/03/04 06:13:27;;;;;;;;;;;;;;;3.18;85.72;99875.09;3171807;28;19988;-61
2023/03/04 06:14:58;;;;;;;;;;;;;;;3.15;85.83;99879.44;3171903;28;20341;-61
2023/03/04 06:16:31;;;;;;;;;;;;;;;3.15;86.03;99876.84;3171499;28;19931;-61
2023/03/04 06:18:03;;;;;;;;;;;;;;;3.16;86.06;99876.81;3171978;28;19927;-62
2023/03/04 06:19:36;;;;;;;;;;;;;;;3.17;86.14;99872.56;3171993;28;19923;-62
2023/03/04 06:21:08;;;;;;;;;;;;;;;3.16;86.18;99868.25;3171694;28;19981;-61
2023/03/04 06:22:40;;;;;;;;;;;;;;;3.19;86.03;99873.34;3171968;28;19924;-61
2023/03/04 06:24:11;;;;;;;;;;;;;;;3.19;86.21;99879.38;3171893;28;19924;-61
2023/03/04 06:25:43;;;;;;;;;;;;;;;3.18;86.22;99881.97;3171698;28;19928;-61
2023/03/04 06:27:15;;;;;;;;;;;;;;;3.18;86.21;99876.81;3171811;28;19924;-62
2023/03/04 06:28:47;;;;;;;;;;;;;;;3.19;86.20;99887.09;3171168;28;19923;-62
2023/03/04 06:30:17;;;;;;;;;;;;;;;3.24;86.22;99888.75;3171474;28;19924;-62
2023/03/04 06:31:50;;;;;;;;;;;;;;;3.26;86.14;99887.88;3165494;28;20396;-62
2023/03/04 06:33:22;;;;;;;;;;;;;;;3.31;86.02;99898.06;3158933;28;19924;-62
2023/03/04 06:34:53;;;;;;;;;;;;;;;3.34;85.97;99892.88;3159006;28;20383;-62
2023/03/04 06:36:24;;;;;;;;;;;;;;;3.34;85.88;99898.91;3164266;28;20832;-62
2023/03/04 06:37:55;;;;;;;;;;;;;;;3.36;85.83;99904.03;3171727;28;19928;-62
2023/03/04 06:39:27;;;;;;;;;;;;;;;3.37;85.84;99892.84;3171508;28;19993;-62
2023/03/04 06:41:05;;;;;;;;;;;;;;;3.36;86.00;99891.16;3171288;28;19924;-62
2023/03/04 06:42:37;;;;;;;;;;;;;;;3.37;85.95;99891.16;3171345;28;19924;-62
2023/03/04 06:44:09;;;;;;;;;;;;;;;3.40;85.91;99895.38;3171491;28;19924;-62
2023/03/04 06:45:40;;;;;;;;;;;;;;;3.40;85.79;99901.41;3171024;28;19988;-62
2023/03/04 06:47:13;;;;;;;;;;;;;;;3.42;86.10;99902.19;3171556;28;19946;-62
2023/03/04 06:48:45;;;;;;;;;;;;;;;3.46;86.04;99899.59;3171559;28;19984;-62
2023/03/04 06:50:16;;;;;;;;;;;;;;;3.49;86.07;99902.09;3171318;28;19924;-62
2023/03/04 06:51:48;;;;;;;;;;;;;;;3.48;86.02;99906.41;3171236;28;19935;-62
2023/03/04 06:53:20;;;;;;;;;;;;;;;3.49;85.97;99902.09;3169643;28;19928;-62
2023/03/04 06:54:51;;;;;;;;;;;;;;;3.52;86.11;99895.22;3171215;28;19931;-62
2023/03/04 06:56:23;;;;;;;;;;;;;;;3.57;86.06;99908.84;3171252;28;19928;-62
2023/03/04 06:57:54;;;;;;;;;;;;;;;3.61;86.17;99907.94;3171256;28;20330;-62
2023/03/04 06:59:25;;;;;;;;;;;;;;;3.67;86.08;99906.13;3170967;28;20345;-62
2023/03/04 07:00:56;;;;;;;;;;;;;;;3.70;86.06;99906.97;3171458;28;20006;-61
2023/03/04 07:02:29;;;;;;;;;;;;;;;3.75;86.00;99907.72;3171014;28;19996;-62
2023/03/04 07:04:01;;;;;;;;;;;;;;;3.80;85.94;99916.22;3170709;28;19946;-62
2023/03/04 07:05:33;;;;;;;;;;;;;;;3.81;85.83;99910.19;3170953;27;19938;-61
2023/03/04 07:07:04;;;;;;;;;;;;;;;3.81;85.96;99909.34;3170956;28;19947;-61
2023/03/04 07:08:36;;;;;;;;;;;;;;;3.83;86.31;99908.44;3163553;28;19924;-62
2023/03/04 07:10:08;;;;;;;;;;;;;;;3.88;86.21;99911.81;3158438;28;19928;-62
2023/03/04 07:11:40;;;;;;;;;;;;;;;3.90;86.21;99914.34;3158595;28;19924;-62
2023/03/04 07:13:12;;;;;;;;;;;;;;;3.92;86.35;99916.91;3158387;28;19924;-62
2023/03/04 07:14:44;;;;;;;;;;;;;;;3.93;86.40;99911.72;3170532;28;19934;-62
2023/03/04 07:16:16;;;;;;;;;;;;;;;3.96;86.38;99909.09;3171058;28;19924;-61
2023/03/04 07:17:49;;;;;;;;;;;;;;;4.01;86.43;99901.31;3170975;28;19931;-63
2023/03/04 07:19:21;;;;;;;;;;;;;;;4.08;86.46;99908.91;3170598;28;19985;-62
2023/03/04 07:20:52;;;;;;;;;;;;;;;4.15;86.27;99907.09;3170948;28;19927;-62
2023/03/04 07:22:23;;;;;;;;;;;;;;;4.22;86.09;99913.81;3170814;28;19930;-61
2023/03/04 07:23:55;;;;;;;;;;;;;;;4.28;86.09;99905.97;3171028;28;20325;-61
2023/03/04 07:25:26;;;;;;;;;;;;;;;4.34;85.99;99903.28;3170974;28;20283;-61
2023/03/04 07:26:58;;;;;;;;;;;;;;;4.39;85.81;99904.94;3170819;28;19955;-62
2023/03/04 07:28:30;;;;;;;;;;;;;;;4.45;85.79;99900.53;3170878;28;19931;-62
2023/03/04 07:30:01;;;;;;;;;;;;;;;4.49;85.72;99898.72;3170756;28;19927;-61
2023/03/04 07:31:34;;;;;;;;;;;;;;;4.55;85.65;99896.91;3170812;28;19996;-62
2023/03/04 07:33:06;;;;;;;;;;;;;;;4.60;85.61;99895.97;3170392;28;19931;-62
2023/03/04 07:34:37;;;;;;;;;;;;;;;4.65;85.49;99895.00;3170966;28;19935;-62
2023/03/04 07:36:10;;;;;;;;;;;;;;;4.71;85.34;99894.88;3170925;28;20453;-62
2023/03/04 07:37:41;;;;;;;;;;;;;;;4.77;85.29;99889.59;3170916;28;19924;-62
2023/03/04 07:39:13;;;;;;;;;;;;;;;4.83;85.36;99892.94;3171018;28;19927;-62
2023/03/04 07:40:44;;;;;;;;;;;;;;;4.89;85.18;99893.66;3170175;28;19928;-62
2023/03/04 07:42:16;;;;;;;;;;;;;;;4.93;85.01;99895.28;3170791;28;19980;-62
2023/03/04 07:43:47;;;;;;;;;;;;;;;4.98;85.06;99887.44;3170765;28;19932;-62
2023/03/04 07:45:19;;;;;;;;;;;;;;;5.01;84.92;99884.81;3170690;28;19999;-62
2023/03/04 07:46:50;;;;;;;;;;;;;;;5.04;84.87;99884.75;3170881;28;19946;-62
2023/03/04 07:48:22;;;;;;;;;;;;;;;5.06;84.91;99882.97;3170900;28;19924;-62
2023/03/04 07:49:55;;;;;;;;;;;;;;;5.08;84.95;99878.63;3170670;28;19923;-62
2023/03/04 07:51:27;;;;;;;;;;;;;;;5.11;84.99;99873.38;3170763;28;19923;-62
2023/03/04 07:52:58;;;;;;;;;;;;;;;5.14;84.88;99877.63;3170913;28;19927;-62
2023/03/04 07:54:30;;;;;;;;;;;;;;;5.16;84.79;99871.56;3170588;28;19924;-62
2023/03/04 07:56:02;;;;;;;;;;;;;;;5.19;84.95;99875.81;3170582;28;19923;-62
2023/03/04 07:57:33;;;;;;;;;;;;;;;5.22;84.84;99879.16;3170732;28;19924;-62
2023/03/04 07:59:05;;;;;;;;;;;;;;;5.27;84.73;99888.56;3165441;28;19976;-62
2023/03/04 08:00:35;;;;;;;;;;;;;;;5.28;84.61;99880.78;3170532;28;19935;-62
2023/03/04 08:02:08;;;;;;;;;;;;;;;5.29;84.77;99874.72;3170427;28;20028;-62
2023/03/04 08:03:41;;;;;;;;;;;;;;;5.31;84.76;99883.28;3170665;28;19924;-62
2023/03/04 08:05:13;;;;;;;;;;;;;;;5.32;84.81;99877.22;3170594;28;19927;-62